createdAt,value
2019-03-31T00:00:14.389Z,12.90
2019-03-31T00:01:14.371Z,12.00
2019-03-31T00:02:14.356Z,11.80
2019-03-31T00:03:14.345Z,12.90
2019-03-31T00:04:14.371Z,11.80
2019-03-31T00:05:14.331Z,11.30
2019-03-31T00:06:14.320Z,11.70
2019-03-31T00:07:14.304Z,11.80
2019-03-31T00:08:14.291Z,11.70
2019-03-31T00:09:14.297Z,14.00
2019-03-31T00:10:14.285Z,12.40
2019-03-31T00:11:14.262Z,12.80
2019-03-31T00:12:14.254Z,11.70
2019-03-31T00:13:14.234Z,12.60
2019-03-31T00:14:14.231Z,12.30
2019-03-31T00:15:14.212Z,12.00
2019-03-31T00:16:14.233Z,13.50
2019-03-31T00:17:14.196Z,12.50
2019-03-31T00:18:14.183Z,12.20
2019-03-31T00:19:14.185Z,12.40
2019-03-31T00:20:14.158Z,12.90
2019-03-31T00:21:14.143Z,12.80
2019-03-31T00:22:14.154Z,13.10
2019-03-31T00:23:14.126Z,13.80
2019-03-31T00:24:14.135Z,12.00
2019-03-31T00:25:14.106Z,12.30
2019-03-31T00:26:14.094Z,12.90
2019-03-31T00:27:14.083Z,13.90
2019-03-31T00:28:14.092Z,13.10
2019-03-31T00:29:14.065Z,13.60
2019-03-31T00:30:14.046Z,12.20
2019-03-31T00:31:21.953Z,11.60
2019-03-31T00:32:15.020Z,12.60
2019-03-31T00:33:14.016Z,12.40
2019-03-31T00:34:14.056Z,12.70
2019-03-31T00:35:13.988Z,13.80
2019-03-31T00:36:13.980Z,14.00
2019-03-31T00:37:13.966Z,13.00
2019-03-31T00:38:13.953Z,13.10
2019-03-31T00:39:13.978Z,14.30
2019-03-31T00:40:13.930Z,12.80
2019-03-31T00:41:13.926Z,11.10
2019-03-31T00:42:13.901Z,11.20
2019-03-31T00:43:13.896Z,11.70
2019-03-31T00:44:13.909Z,13.50
2019-03-31T00:45:13.907Z,13.20
2019-03-31T00:46:13.870Z,12.10
2019-03-31T00:47:13.863Z,14.20
2019-03-31T00:48:13.842Z,13.20
2019-03-31T00:49:13.881Z,14.20
2019-03-31T00:50:13.815Z,12.70
2019-03-31T00:51:13.837Z,12.10
2019-03-31T00:52:13.794Z,14.70
2019-03-31T00:53:13.783Z,15.10
2019-03-31T00:54:13.778Z,13.30
2019-03-31T00:55:13.781Z,14.40
2019-03-31T00:56:13.754Z,15.30
2019-03-31T00:57:13.762Z,14.00
2019-03-31T00:58:13.724Z,11.70
2019-03-31T00:59:13.713Z,11.90
2019-03-31T01:00:13.731Z,13.40
2019-03-31T01:01:13.696Z,13.20
2019-03-31T01:02:13.683Z,12.50
2019-03-31T01:03:13.717Z,12.00
2019-03-31T01:04:13.666Z,12.70
2019-03-31T01:05:13.659Z,14.10
2019-03-31T01:06:13.640Z,12.60
2019-03-31T01:07:13.621Z,10.30
2019-03-31T01:08:13.611Z,13.40
2019-03-31T01:09:13.604Z,14.90
2019-03-31T01:10:13.633Z,13.20
2019-03-31T01:11:13.584Z,12.10
2019-03-31T01:12:13.569Z,14.10
2019-03-31T01:13:13.560Z,12.30
2019-03-31T01:14:13.565Z,11.30
2019-03-31T01:15:13.549Z,11.90
2019-03-31T01:16:13.548Z,11.30
2019-03-31T01:17:13.517Z,11.80
2019-03-31T01:18:13.505Z,13.80
2019-03-31T01:19:13.492Z,12.40
2019-03-31T01:20:13.507Z,15.50
2019-03-31T01:21:13.469Z,11.00
2019-03-31T01:22:13.482Z,13.40
2019-03-31T01:23:13.449Z,12.90
2019-03-31T01:24:13.436Z,10.70
2019-03-31T01:25:13.432Z,13.30
2019-03-31T01:26:13.409Z,11.40
2019-03-31T01:27:13.398Z,11.70
2019-03-31T01:28:13.405Z,12.20
2019-03-31T01:29:13.382Z,13.10
2019-03-31T01:30:13.382Z,10.00
2019-03-31T01:31:13.363Z,10.30
2019-03-31T01:32:13.344Z,10.80
2019-03-31T01:33:13.337Z,13.90
2019-03-31T01:34:13.346Z,12.40
2019-03-31T01:35:13.320Z,12.80
2019-03-31T01:36:13.305Z,11.40
2019-03-31T01:37:13.297Z,12.80
2019-03-31T01:38:13.274Z,12.50
2019-03-31T01:39:13.264Z,13.20
2019-03-31T01:40:13.280Z,12.00
2019-03-31T01:41:13.249Z,13.60
2019-03-31T01:42:13.236Z,12.00
2019-03-31T01:43:13.225Z,11.80
2019-03-31T01:44:13.204Z,11.70
2019-03-31T01:45:13.216Z,13.30
2019-03-31T01:46:13.215Z,11.70
2019-03-31T01:47:13.180Z,11.50
2019-03-31T01:48:13.178Z,12.60
2019-03-31T01:49:13.161Z,10.10
2019-03-31T01:50:13.184Z,10.30
2019-03-31T01:51:13.133Z,10.50
2019-03-31T01:52:13.146Z,12.30
2019-03-31T01:53:13.113Z,11.10
2019-03-31T01:54:13.095Z,12.00
2019-03-31T01:55:13.109Z,12.00
2019-03-31T01:56:13.079Z,10.70
2019-03-31T01:57:13.060Z,9.50
2019-03-31T01:58:13.057Z,11.40
2019-03-31T01:59:13.061Z,10.80
2019-03-31T02:00:13.038Z,9.90
2019-03-31T02:01:13.023Z,11.10
2019-03-31T02:02:13.013Z,11.70
2019-03-31T02:03:13.000Z,11.60
2019-03-31T02:04:12.996Z,11.30
2019-03-31T02:05:13.008Z,10.40
2019-03-31T02:06:12.955Z,9.90
2019-03-31T02:07:12.956Z,10.50
2019-03-31T02:08:12.941Z,11.10
2019-03-31T02:09:12.925Z,11.70
2019-03-31T02:10:12.927Z,11.10
2019-03-31T02:11:12.930Z,9.10
2019-03-31T02:12:12.892Z,10.20
2019-03-31T02:13:12.883Z,11.30
2019-03-31T02:14:12.871Z,11.10
2019-03-31T02:15:12.885Z,11.20
2019-03-31T02:16:12.852Z,12.60
2019-03-31T02:17:12.876Z,11.00
2019-03-31T02:18:12.828Z,11.80
2019-03-31T02:19:12.813Z,10.70
2019-03-31T02:20:12.821Z,11.50
2019-03-31T02:21:12.794Z,10.50
2019-03-31T02:22:12.783Z,11.40
2019-03-31T02:23:12.775Z,14.00
2019-03-31T02:24:12.788Z,11.60
2019-03-31T02:25:12.758Z,10.20
2019-03-31T02:26:12.736Z,11.00
2019-03-31T02:27:12.726Z,11.40
2019-03-31T02:28:12.735Z,11.70
2019-03-31T02:29:12.702Z,10.40
2019-03-31T02:30:12.733Z,10.60
2019-03-31T02:31:12.680Z,11.10
2019-03-31T02:32:23.637Z,10.40
2019-03-31T02:33:13.654Z,10.50
2019-03-31T02:34:12.650Z,11.20
2019-03-31T02:35:12.655Z,10.60
2019-03-31T02:36:12.641Z,12.70
2019-03-31T02:37:12.617Z,12.00
2019-03-31T02:38:12.603Z,9.50
2019-03-31T02:39:12.594Z,13.40
2019-03-31T02:40:12.595Z,10.40
2019-03-31T02:41:12.577Z,10.40
2019-03-31T02:42:12.559Z,11.70
2019-03-31T02:43:12.577Z,10.90
2019-03-31T02:44:12.531Z,10.80
2019-03-31T02:45:12.542Z,11.90
2019-03-31T02:46:12.508Z,11.60
2019-03-31T02:47:12.503Z,10.80
2019-03-31T02:48:12.484Z,11.70
2019-03-31T02:49:12.502Z,8.90
2019-03-31T02:50:12.474Z,11.40
2019-03-31T02:51:12.473Z,12.30
2019-03-31T02:52:12.449Z,10.60
2019-03-31T02:53:12.431Z,11.90
2019-03-31T02:54:12.421Z,12.20
2019-03-31T02:55:12.413Z,12.00
2019-03-31T02:56:12.434Z,11.50
2019-03-31T02:57:12.387Z,11.30
2019-03-31T02:58:12.376Z,11.60
2019-03-31T02:59:12.370Z,10.70
2019-03-31T03:00:12.353Z,12.50
2019-03-31T03:01:12.383Z,11.60
2019-03-31T03:02:12.354Z,12.20
2019-03-31T03:03:12.318Z,11.20
2019-03-31T03:04:12.312Z,13.70
2019-03-31T03:05:19.944Z,11.90
2019-03-31T03:06:13.301Z,11.90
2019-03-31T03:07:12.283Z,13.00
2019-03-31T03:08:12.282Z,13.40
2019-03-31T03:09:12.252Z,12.60
2019-03-31T03:10:12.249Z,12.90
2019-03-31T03:11:12.239Z,11.10
2019-03-31T03:12:12.225Z,10.60
2019-03-31T03:13:12.216Z,14.20
2019-03-31T03:14:12.194Z,13.50
2019-03-31T03:15:12.201Z,14.00
2019-03-31T03:16:12.195Z,11.30
2019-03-31T03:17:12.164Z,11.20
2019-03-31T03:18:12.153Z,11.30
2019-03-31T03:19:12.137Z,11.50
2019-03-31T03:20:12.571Z,11.80
2019-03-31T03:21:12.152Z,14.30
2019-03-31T03:22:12.106Z,13.30
2019-03-31T03:23:12.099Z,14.00
2019-03-31T03:24:12.092Z,12.90
2019-03-31T03:25:12.075Z,11.00
2019-03-31T03:26:12.070Z,12.40
2019-03-31T03:27:12.092Z,12.10
2019-03-31T03:28:12.043Z,11.90
2019-03-31T03:29:12.024Z,13.30
2019-03-31T03:30:12.013Z,12.70
2019-03-31T03:31:15.759Z,12.30
2019-03-31T03:32:12.046Z,11.40
2019-03-31T03:33:16.402Z,13.60
2019-03-31T03:34:13.010Z,10.40
2019-03-31T03:35:11.965Z,12.00
2019-03-31T03:36:11.967Z,11.90
2019-03-31T03:37:11.961Z,10.80
2019-03-31T03:38:11.928Z,13.50
2019-03-31T03:39:11.925Z,12.50
2019-03-31T03:40:11.923Z,13.00
2019-03-31T03:41:11.902Z,12.00
2019-03-31T03:42:11.879Z,12.00
2019-03-31T03:43:11.874Z,12.00
2019-03-31T03:44:11.855Z,15.20
2019-03-31T03:45:11.884Z,13.30
2019-03-31T03:46:11.848Z,12.50
2019-03-31T03:47:11.834Z,12.60
2019-03-31T03:48:11.817Z,12.10
2019-03-31T03:49:11.946Z,16.30
2019-03-31T03:50:11.793Z,14.00
2019-03-31T03:51:11.849Z,15.20
2019-03-31T03:52:11.765Z,13.10
2019-03-31T03:53:11.776Z,14.30
2019-03-31T03:54:11.748Z,13.00
2019-03-31T03:55:11.735Z,14.40
2019-03-31T03:56:11.736Z,16.20
2019-03-31T03:57:11.740Z,12.60
2019-03-31T03:58:11.716Z,13.70
2019-03-31T03:59:11.772Z,12.90
2019-03-31T04:00:11.681Z,13.20
2019-03-31T04:01:11.682Z,14.30
2019-03-31T04:02:11.656Z,15.40
2019-03-31T04:03:28.558Z,13.20
2019-03-31T04:04:12.635Z,13.10
2019-03-31T04:05:11.712Z,13.40
2019-03-31T04:06:11.627Z,12.50
2019-03-31T04:07:11.626Z,12.60
2019-03-31T04:08:11.591Z,10.50
2019-03-31T04:09:11.596Z,11.00
2019-03-31T04:10:11.569Z,11.90
2019-03-31T04:11:11.582Z,14.30
2019-03-31T04:12:11.553Z,14.60
2019-03-31T04:13:11.541Z,13.80
2019-03-31T04:14:11.525Z,14.00
2019-03-31T04:15:11.538Z,11.10
2019-03-31T04:16:11.504Z,11.20
2019-03-31T04:17:11.495Z,13.50
2019-03-31T04:18:11.480Z,13.70
2019-03-31T04:19:11.468Z,13.20
2019-03-31T04:20:11.459Z,10.60
2019-03-31T04:21:11.481Z,10.80
2019-03-31T04:22:11.526Z,12.90
2019-03-31T04:23:11.516Z,13.40
2019-03-31T04:24:11.532Z,14.30
2019-03-31T04:25:11.400Z,13.80
2019-03-31T04:26:11.382Z,13.00
2019-03-31T04:27:11.412Z,12.70
2019-03-31T04:28:11.364Z,11.20
2019-03-31T04:29:11.358Z,14.20
2019-03-31T04:30:11.338Z,12.10
2019-03-31T04:31:11.335Z,11.10
2019-03-31T04:32:11.346Z,13.10
2019-03-31T04:33:11.343Z,12.60
2019-03-31T04:34:11.295Z,12.50
2019-03-31T04:35:11.285Z,13.70
2019-03-31T04:36:11.298Z,13.20
2019-03-31T04:37:11.284Z,13.70
2019-03-31T04:38:11.290Z,15.40
2019-03-31T04:39:11.271Z,13.40
2019-03-31T04:40:11.231Z,13.00
2019-03-31T04:41:11.220Z,13.10
2019-03-31T04:42:11.211Z,12.30
2019-03-31T04:43:11.203Z,12.70
2019-03-31T04:44:11.213Z,15.50
2019-03-31T04:45:11.200Z,12.80
2019-03-31T04:46:11.159Z,13.40
2019-03-31T04:47:11.154Z,13.00
2019-03-31T04:48:11.140Z,14.00
2019-03-31T04:49:11.133Z,11.90
2019-03-31T04:50:11.141Z,13.20
2019-03-31T04:51:11.124Z,10.70
2019-03-31T04:52:11.098Z,13.00
2019-03-31T04:53:11.085Z,14.90
2019-03-31T04:54:11.079Z,12.50
2019-03-31T04:55:11.085Z,14.40
2019-03-31T04:56:11.046Z,13.50
2019-03-31T04:57:11.060Z,13.20
2019-03-31T04:58:11.033Z,11.80
2019-03-31T04:59:11.022Z,11.50
2019-03-31T05:00:11.023Z,13.00
2019-03-31T05:01:10.999Z,11.60
2019-03-31T05:02:10.982Z,11.60
2019-03-31T05:03:11.114Z,12.30
2019-03-31T05:04:10.984Z,11.60
2019-03-31T05:05:10.966Z,11.00
2019-03-31T05:06:10.940Z,12.10
2019-03-31T05:07:11.619Z,10.90
2019-03-31T05:08:10.927Z,14.00
2019-03-31T05:09:10.997Z,11.80
2019-03-31T05:10:10.944Z,12.20
2019-03-31T05:11:10.885Z,13.10
2019-03-31T05:12:10.867Z,12.20
2019-03-31T05:13:10.864Z,11.80
2019-03-31T05:14:10.853Z,11.40
2019-03-31T05:15:10.934Z,13.00
2019-03-31T05:16:10.830Z,13.00
2019-03-31T05:17:10.815Z,10.90
2019-03-31T05:18:10.799Z,15.90
2019-03-31T05:19:10.797Z,12.40
2019-03-31T05:20:10.805Z,12.00
2019-03-31T05:21:10.775Z,12.00
2019-03-31T05:22:22.417Z,12.70
2019-03-31T05:23:10.801Z,12.90
2019-03-31T05:24:10.839Z,10.80
2019-03-31T05:25:10.772Z,11.40
2019-03-31T05:26:10.881Z,11.60
2019-03-31T05:27:10.723Z,11.60
2019-03-31T05:28:10.697Z,11.90
2019-03-31T05:29:10.696Z,12.80
2019-03-31T05:30:10.668Z,10.80
2019-03-31T05:31:10.669Z,12.20
2019-03-31T05:32:10.674Z,11.50
2019-03-31T05:33:10.639Z,12.20
2019-03-31T05:34:18.833Z,10.30
2019-03-31T05:35:11.608Z,12.10
2019-03-31T05:36:10.619Z,12.40
2019-03-31T05:37:10.613Z,12.70
2019-03-31T05:38:10.580Z,14.70
2019-03-31T05:39:10.564Z,12.70
2019-03-31T05:40:10.558Z,12.00
2019-03-31T05:41:10.547Z,11.30
2019-03-31T05:42:10.534Z,12.50
2019-03-31T05:43:10.620Z,10.70
2019-03-31T05:44:10.503Z,12.90
2019-03-31T05:45:10.505Z,14.00
2019-03-31T05:46:10.489Z,14.10
2019-03-31T05:47:10.490Z,12.80
2019-03-31T05:48:10.463Z,12.40
2019-03-31T05:49:10.447Z,14.10
2019-03-31T05:50:10.489Z,13.90
2019-03-31T05:51:10.425Z,14.20
2019-03-31T05:52:10.442Z,14.50
2019-03-31T05:53:10.406Z,15.90
2019-03-31T05:54:10.400Z,13.20
2019-03-31T05:55:10.388Z,16.50
2019-03-31T05:56:10.411Z,16.40
2019-03-31T05:57:10.386Z,12.80
2019-03-31T05:58:10.354Z,14.10
2019-03-31T05:59:10.348Z,15.30
2019-03-31T06:00:10.336Z,16.50
2019-03-31T06:01:10.319Z,16.00
2019-03-31T06:02:10.350Z,14.10
2019-03-31T06:03:10.295Z,14.70
2019-03-31T06:04:10.285Z,13.80
2019-03-31T06:05:10.272Z,15.00
2019-03-31T06:06:10.267Z,14.40
2019-03-31T06:07:10.269Z,16.30
2019-03-31T06:08:10.241Z,14.60
2019-03-31T06:09:10.243Z,16.20
2019-03-31T06:10:10.216Z,14.20
2019-03-31T06:11:10.202Z,13.30
2019-03-31T06:12:10.205Z,14.50
2019-03-31T06:13:10.190Z,14.00
2019-03-31T06:14:10.181Z,13.60
2019-03-31T06:15:10.205Z,12.70
2019-03-31T06:16:10.214Z,15.10
2019-03-31T06:17:10.181Z,14.20
2019-03-31T06:18:10.174Z,13.70
2019-03-31T06:19:10.111Z,12.90
2019-03-31T06:20:10.104Z,10.90
2019-03-31T06:21:10.138Z,11.80
2019-03-31T06:22:10.083Z,15.00
2019-03-31T06:23:10.091Z,12.90
2019-03-31T06:24:10.056Z,13.50
2019-03-31T06:25:10.046Z,12.30
2019-03-31T06:26:10.070Z,12.60
2019-03-31T06:27:10.579Z,13.30
2019-03-31T06:28:10.047Z,13.80
2019-03-31T06:29:10.025Z,14.10
2019-03-31T06:30:09.985Z,13.70
2019-03-31T06:31:09.976Z,12.10
2019-03-31T06:32:09.965Z,14.90
2019-03-31T06:33:09.987Z,13.90
2019-03-31T06:34:09.966Z,12.40
2019-03-31T06:35:09.941Z,12.70
2019-03-31T06:36:09.926Z,13.60
2019-03-31T06:37:09.919Z,12.50
2019-03-31T06:38:09.912Z,14.90
2019-03-31T06:39:09.894Z,13.40
2019-03-31T06:40:09.873Z,12.00
2019-03-31T06:41:09.895Z,11.60
2019-03-31T06:42:09.849Z,12.10
2019-03-31T06:43:09.847Z,11.50
2019-03-31T06:44:09.836Z,12.50
2019-03-31T06:45:09.821Z,13.60
2019-03-31T06:46:09.809Z,11.50
2019-03-31T06:47:09.820Z,11.30
2019-03-31T06:48:09.794Z,13.70
2019-03-31T06:49:09.783Z,13.00
2019-03-31T06:50:09.764Z,13.30
2019-03-31T06:51:09.753Z,16.40
2019-03-31T06:52:09.744Z,13.90
2019-03-31T06:53:09.753Z,12.50
2019-03-31T06:54:09.722Z,15.00
2019-03-31T06:55:09.707Z,14.90
2019-03-31T06:56:09.711Z,13.20
2019-03-31T06:57:09.702Z,13.50
2019-03-31T06:58:09.689Z,15.50
2019-03-31T06:59:09.697Z,14.50
2019-03-31T07:00:09.651Z,13.60
2019-03-31T07:01:09.654Z,15.40
2019-03-31T07:02:09.627Z,12.80
2019-03-31T07:03:09.635Z,21.60
2019-03-31T07:04:09.645Z,31.00
2019-03-31T07:05:09.592Z,25.40
2019-03-31T07:06:09.583Z,24.00
2019-03-31T07:07:09.577Z,22.20
2019-03-31T07:08:09.577Z,20.00
2019-03-31T07:09:09.550Z,20.70
2019-03-31T07:10:09.564Z,14.00
2019-03-31T07:11:09.527Z,13.10
2019-03-31T07:12:09.514Z,12.40
2019-03-31T07:13:09.520Z,14.30
2019-03-31T07:14:09.501Z,13.40
2019-03-31T07:15:09.485Z,14.60
2019-03-31T07:16:09.489Z,13.60
2019-03-31T07:17:09.471Z,13.40
2019-03-31T07:18:09.463Z,12.40
2019-03-31T07:19:09.445Z,13.00
2019-03-31T07:20:09.435Z,13.80
2019-03-31T07:21:09.445Z,14.30
2019-03-31T07:22:09.405Z,12.50
2019-03-31T07:23:09.427Z,14.10
2019-03-31T07:24:09.379Z,14.50
2019-03-31T07:25:09.373Z,13.30
2019-03-31T07:26:09.359Z,13.50
2019-03-31T07:27:09.347Z,12.60
2019-03-31T07:28:09.351Z,13.80
2019-03-31T07:29:09.352Z,13.10
2019-03-31T07:30:09.312Z,13.30
2019-03-31T07:31:09.315Z,13.10
2019-03-31T07:32:09.308Z,12.80
2019-03-31T07:33:09.307Z,12.20
2019-03-31T07:34:09.285Z,13.90
2019-03-31T07:35:18.223Z,12.40
2019-03-31T07:36:10.329Z,13.20
2019-03-31T07:37:09.254Z,13.70
2019-03-31T07:38:09.248Z,13.70
2019-03-31T07:39:09.332Z,13.90
2019-03-31T07:40:09.343Z,12.80
2019-03-31T07:41:13.029Z,13.00
2019-03-31T07:42:09.289Z,14.70
2019-03-31T07:43:09.224Z,12.80
2019-03-31T07:44:09.163Z,12.10
2019-03-31T07:45:09.150Z,13.30
2019-03-31T07:46:09.139Z,14.90
2019-03-31T07:47:09.147Z,16.40
2019-03-31T07:48:09.128Z,13.70
2019-03-31T07:49:09.143Z,13.00
2019-03-31T07:50:09.093Z,15.40
2019-03-31T07:51:09.080Z,14.80
2019-03-31T07:52:09.081Z,14.30
2019-03-31T07:53:09.082Z,15.80
2019-03-31T07:54:09.071Z,16.10
2019-03-31T07:55:09.077Z,26.70
2019-03-31T07:56:09.020Z,16.40
2019-03-31T07:57:09.018Z,18.50
2019-03-31T07:58:09.040Z,17.90
2019-03-31T07:59:08.996Z,14.80
2019-03-31T08:00:08.975Z,14.30
2019-03-31T08:01:08.994Z,16.80
2019-03-31T08:02:08.951Z,18.30
2019-03-31T08:03:08.959Z,15.40
2019-03-31T08:04:08.936Z,15.70
2019-03-31T08:05:08.925Z,18.30
2019-03-31T08:06:08.912Z,15.10
2019-03-31T08:07:08.917Z,16.40
2019-03-31T08:08:08.916Z,16.60
2019-03-31T08:09:08.876Z,17.50
2019-03-31T08:10:08.867Z,17.00
2019-03-31T08:11:08.854Z,17.30
2019-03-31T08:12:08.851Z,17.60
2019-03-31T08:13:08.846Z,16.10
2019-03-31T08:14:08.846Z,17.00
2019-03-31T08:15:08.820Z,17.00
2019-03-31T08:16:08.801Z,18.60
2019-03-31T08:17:08.804Z,17.20
2019-03-31T08:18:08.796Z,18.10
2019-03-31T08:19:08.769Z,16.40
2019-03-31T08:20:08.777Z,22.80
2019-03-31T08:21:08.750Z,18.80
2019-03-31T08:22:08.738Z,18.60
2019-03-31T08:23:08.779Z,19.70
2019-03-31T08:24:08.710Z,17.60
2019-03-31T08:25:08.710Z,20.10
2019-03-31T08:26:08.711Z,23.20
2019-03-31T08:27:09.597Z,18.80
2019-03-31T08:28:08.671Z,17.30
2019-03-31T08:29:08.675Z,19.20
2019-03-31T08:30:08.641Z,19.20
2019-03-31T08:31:08.666Z,19.80
2019-03-31T08:32:08.615Z,16.40
2019-03-31T08:33:08.636Z,19.40
2019-03-31T08:34:08.608Z,18.60
2019-03-31T08:35:08.585Z,19.40
2019-03-31T08:36:08.583Z,19.30
2019-03-31T08:37:09.152Z,18.80
2019-03-31T08:38:08.561Z,17.80
2019-03-31T08:39:08.569Z,20.70
2019-03-31T08:40:08.592Z,18.90
2019-03-31T08:41:08.608Z,17.70
2019-03-31T08:42:08.510Z,17.40
2019-03-31T08:43:08.515Z,22.00
2019-03-31T08:44:09.548Z,18.00
2019-03-31T08:45:08.513Z,18.60
2019-03-31T08:46:08.510Z,19.10
2019-03-31T08:47:08.481Z,19.10
2019-03-31T08:48:08.458Z,21.10
2019-03-31T08:49:08.553Z,21.00
2019-03-31T08:50:08.518Z,19.20
2019-03-31T08:51:08.429Z,22.70
2019-03-31T08:52:08.404Z,22.80
2019-03-31T08:53:08.474Z,22.90
2019-03-31T08:54:08.386Z,20.90
2019-03-31T08:55:08.362Z,21.10
2019-03-31T08:56:08.927Z,23.30
2019-03-31T08:57:08.373Z,22.40
2019-03-31T08:58:08.323Z,21.50
2019-03-31T08:59:08.419Z,23.80
2019-03-31T09:00:08.310Z,22.30
2019-03-31T09:01:09.141Z,21.20
2019-03-31T09:02:08.306Z,19.80
2019-03-31T09:03:08.267Z,21.60
2019-03-31T09:04:08.273Z,20.40
2019-03-31T09:05:08.242Z,20.10
2019-03-31T09:06:08.239Z,18.90
2019-03-31T09:07:08.236Z,20.30
2019-03-31T09:08:08.219Z,21.20
2019-03-31T09:09:08.254Z,21.20
2019-03-31T09:10:08.188Z,22.20
2019-03-31T09:11:08.180Z,20.20
2019-03-31T09:12:08.169Z,21.10
2019-03-31T09:13:08.164Z,21.60
2019-03-31T09:14:08.212Z,21.90
2019-03-31T09:15:08.141Z,21.50
2019-03-31T09:16:08.137Z,22.80
2019-03-31T09:17:08.127Z,24.60
2019-03-31T09:18:08.112Z,23.80
2019-03-31T09:19:08.107Z,20.90
2019-03-31T09:20:08.085Z,23.10
2019-03-31T09:21:08.064Z,22.80
2019-03-31T09:22:08.057Z,25.90
2019-03-31T09:23:08.045Z,22.70
2019-03-31T09:24:08.061Z,26.20
2019-03-31T09:25:08.020Z,25.30
2019-03-31T09:26:08.009Z,23.70
2019-03-31T09:27:07.999Z,22.90
2019-03-31T09:28:07.993Z,27.60
2019-03-31T09:29:08.007Z,25.80
2019-03-31T09:30:08.612Z,26.50
2019-03-31T09:31:07.985Z,26.00
2019-03-31T09:32:07.943Z,29.10
2019-03-31T09:33:07.929Z,27.30
2019-03-31T09:34:07.936Z,26.30
2019-03-31T09:35:07.913Z,27.80
2019-03-31T09:36:16.030Z,26.70
2019-03-31T09:37:07.933Z,27.00
2019-03-31T09:38:07.881Z,28.20
2019-03-31T09:39:07.865Z,33.10
2019-03-31T09:40:07.845Z,29.40
2019-03-31T09:41:07.840Z,31.70
2019-03-31T09:42:07.827Z,28.30
2019-03-31T09:43:07.845Z,27.20
2019-03-31T09:44:07.805Z,28.40
2019-03-31T09:45:07.793Z,29.50
2019-03-31T09:46:07.781Z,26.70
2019-03-31T09:47:07.777Z,27.60
2019-03-31T09:48:07.754Z,29.10
2019-03-31T09:49:07.781Z,29.80
2019-03-31T09:50:07.729Z,29.80
2019-03-31T09:51:07.724Z,29.60
2019-03-31T09:52:07.710Z,27.70
2019-03-31T09:53:07.713Z,29.00
2019-03-31T09:54:07.709Z,28.00
2019-03-31T09:55:07.669Z,32.50
2019-03-31T09:56:07.689Z,28.30
2019-03-31T09:57:07.656Z,27.60
2019-03-31T09:58:07.644Z,32.00
2019-03-31T09:59:07.639Z,29.30
2019-03-31T10:00:07.631Z,29.40
2019-03-31T10:01:08.133Z,31.40
2019-03-31T10:02:07.588Z,32.20
2019-03-31T10:03:07.583Z,32.00
2019-03-31T10:04:07.588Z,31.60
2019-03-31T10:05:07.561Z,33.20
2019-03-31T10:06:10.942Z,32.20
2019-03-31T10:07:07.534Z,34.40
2019-03-31T10:08:07.526Z,33.50
2019-03-31T10:09:07.516Z,31.90
2019-03-31T10:10:07.504Z,33.40
2019-03-31T10:11:07.489Z,32.30
2019-03-31T10:12:07.487Z,34.50
2019-03-31T10:13:07.468Z,32.00
2019-03-31T10:14:07.456Z,34.70
2019-03-31T10:15:07.442Z,33.30
2019-03-31T10:16:07.437Z,35.50
2019-03-31T10:17:07.420Z,31.50
2019-03-31T10:18:07.421Z,33.30
2019-03-31T10:19:07.404Z,33.90
2019-03-31T10:20:07.395Z,35.10
2019-03-31T10:21:07.368Z,31.60
2019-03-31T10:22:07.358Z,33.10
2019-03-31T10:23:07.352Z,33.70
2019-03-31T10:24:07.371Z,31.90
2019-03-31T10:25:07.315Z,32.20
2019-03-31T10:26:07.311Z,30.30
2019-03-31T10:27:07.293Z,29.50
2019-03-31T10:28:07.288Z,32.40
2019-03-31T10:29:07.310Z,30.50
2019-03-31T10:30:07.264Z,32.10
2019-03-31T10:31:07.283Z,30.70
2019-03-31T10:32:07.254Z,31.70
2019-03-31T10:33:07.238Z,30.60
2019-03-31T10:34:07.220Z,30.50
2019-03-31T10:35:07.222Z,30.90
2019-03-31T10:36:07.204Z,29.00
2019-03-31T10:37:07.207Z,30.40
2019-03-31T10:38:07.178Z,28.30
2019-03-31T10:39:07.165Z,33.00
2019-03-31T10:40:07.160Z,30.00
2019-03-31T10:41:07.135Z,29.20
2019-03-31T10:42:07.131Z,29.30
2019-03-31T10:43:07.151Z,28.80
2019-03-31T10:44:07.120Z,27.60
2019-03-31T10:45:07.128Z,27.00
2019-03-31T10:46:07.169Z,27.60
2019-03-31T10:47:07.074Z,30.00
2019-03-31T10:48:19.616Z,29.00
2019-03-31T10:49:08.045Z,27.70
2019-03-31T10:50:07.067Z,29.30
2019-03-31T10:51:07.047Z,29.60
2019-03-31T10:52:07.032Z,27.40
2019-03-31T10:53:07.029Z,28.90
2019-03-31T10:54:07.001Z,29.70
2019-03-31T10:55:06.990Z,30.30
2019-03-31T10:56:06.992Z,29.00
2019-03-31T10:57:06.971Z,26.30
2019-03-31T10:58:06.952Z,27.50
2019-03-31T10:59:06.945Z,30.30
2019-03-31T11:00:06.945Z,29.90
2019-03-31T11:01:06.911Z,29.80
2019-03-31T11:02:06.911Z,30.70
2019-03-31T11:03:06.898Z,29.90
2019-03-31T11:04:06.877Z,30.90
2019-03-31T11:05:06.902Z,29.30
2019-03-31T11:06:06.858Z,29.40
2019-03-31T11:07:06.846Z,26.90
2019-03-31T11:08:06.839Z,29.80
2019-03-31T11:09:06.849Z,26.70
2019-03-31T11:10:06.829Z,30.70
2019-03-31T11:11:06.801Z,27.80
2019-03-31T11:12:06.789Z,27.50
2019-03-31T11:13:06.783Z,29.80
2019-03-31T11:14:06.786Z,28.80
2019-03-31T11:15:06.773Z,29.50
2019-03-31T11:16:06.748Z,27.70
2019-03-31T11:17:06.730Z,27.40
2019-03-31T11:18:06.720Z,29.40
2019-03-31T11:19:06.707Z,26.50
2019-03-31T11:20:06.708Z,32.00
2019-03-31T11:21:06.706Z,28.80
2019-03-31T11:22:06.675Z,29.80
2019-03-31T11:23:06.663Z,30.70
2019-03-31T11:24:06.663Z,31.10
2019-03-31T11:25:19.984Z,30.70
2019-03-31T11:26:07.634Z,32.50
2019-03-31T11:27:06.655Z,32.00
2019-03-31T11:28:06.606Z,29.90
2019-03-31T11:29:27.648Z,31.20
2019-03-31T11:30:06.591Z,31.70
2019-03-31T11:31:06.570Z,31.20
2019-03-31T11:32:06.561Z,33.70
2019-03-31T11:33:07.671Z,34.60
2019-03-31T11:34:06.536Z,33.50
2019-03-31T11:35:06.543Z,38.60
2019-03-31T11:36:06.516Z,37.50
2019-03-31T11:37:13.413Z,35.30
2019-03-31T11:38:07.502Z,33.40
2019-03-31T11:39:06.502Z,35.20
2019-03-31T11:40:06.479Z,35.90
2019-03-31T11:41:06.464Z,34.30
2019-03-31T11:42:06.445Z,35.70
2019-03-31T11:43:06.443Z,36.30
2019-03-31T11:44:06.430Z,34.60
2019-03-31T11:45:06.461Z,32.60
2019-03-31T11:46:06.406Z,38.80
2019-03-31T11:47:06.390Z,33.60
2019-03-31T11:48:06.388Z,35.10
2019-03-31T11:49:06.383Z,34.20
2019-03-31T11:50:06.673Z,36.60
2019-03-31T11:51:06.361Z,33.80
2019-03-31T11:52:06.338Z,35.00
2019-03-31T11:53:06.321Z,38.00
2019-03-31T11:54:06.324Z,37.20
2019-03-31T11:55:06.333Z,34.50
2019-03-31T11:56:06.299Z,32.90
2019-03-31T11:57:06.338Z,33.80
2019-03-31T11:58:06.369Z,35.00
2019-03-31T11:59:06.253Z,37.30
2019-03-31T12:00:06.268Z,32.30
2019-03-31T12:01:06.238Z,34.70
2019-03-31T12:02:06.222Z,38.40
2019-03-31T12:03:06.206Z,37.00
2019-03-31T12:04:06.199Z,36.70
2019-03-31T12:05:06.380Z,33.20
2019-03-31T12:06:06.177Z,33.10
2019-03-31T12:07:06.164Z,31.10
2019-03-31T12:08:06.159Z,33.60
2019-03-31T12:09:06.136Z,33.10
2019-03-31T12:10:06.142Z,32.30
2019-03-31T12:11:06.141Z,34.90
2019-03-31T12:12:06.114Z,32.30
2019-03-31T12:13:06.100Z,39.10
2019-03-31T12:14:06.143Z,32.10
2019-03-31T12:15:06.088Z,34.80
2019-03-31T12:16:06.063Z,31.80
2019-03-31T12:17:06.077Z,34.00
2019-03-31T12:18:06.065Z,34.60
2019-03-31T12:19:06.030Z,34.40
2019-03-31T12:20:06.028Z,32.30
2019-03-31T12:21:06.013Z,28.70
2019-03-31T12:22:06.009Z,29.50
2019-03-31T12:23:06.014Z,28.70
2019-03-31T12:24:05.971Z,33.20
2019-03-31T12:25:05.972Z,30.50
2019-03-31T12:26:05.957Z,32.40
2019-03-31T12:27:05.941Z,30.50
2019-03-31T12:28:05.952Z,32.60
2019-03-31T12:29:05.949Z,32.40
2019-03-31T12:30:05.911Z,32.50
2019-03-31T12:31:05.911Z,29.60
2019-03-31T12:32:05.887Z,28.70
2019-03-31T12:33:05.874Z,34.40
2019-03-31T12:34:05.867Z,30.60
2019-03-31T12:35:05.899Z,30.80
2019-03-31T12:36:05.837Z,31.50
2019-03-31T12:37:05.838Z,31.00
2019-03-31T12:38:05.829Z,35.90
2019-03-31T12:39:05.804Z,34.30
2019-03-31T12:40:05.825Z,29.70
2019-03-31T12:41:05.790Z,31.00
2019-03-31T12:42:05.776Z,33.80
2019-03-31T12:43:05.770Z,37.00
2019-03-31T12:44:05.755Z,32.20
2019-03-31T12:45:05.794Z,30.20
2019-03-31T12:46:05.764Z,30.40
2019-03-31T12:47:05.719Z,32.90
2019-03-31T12:48:05.715Z,32.60
2019-03-31T12:49:05.697Z,31.70
2019-03-31T12:50:06.675Z,33.20
2019-03-31T12:51:05.713Z,31.90
2019-03-31T12:52:05.675Z,32.80